RYR86FV EIDW-LEMH
Flight info
| Callsign | RYR86FV |
|---|---|
| Flight time | N/A |
| Altitude | 37000 |
| Route | PESIT2J PESIT DCT BAKUR DCT GUBJE DCT GISOK DCT TACQI DCT MANIG DCT KORER UM616 TUPAR DCT CNA DCT SECHE DCT AGN DCT TOU DCT LOMRA DCT ROCAN DCT GEANT DCT GIR DCT SALON DCT SULID DCT DIPES N727 SARGO |
| Aircraft | B738/M-SDE2E3FGHIRWXY/LB1 |
Departure
| Time | 2026-05-05 20:39 |
|---|---|
| Airport | Dublin Airport (EIDW) |
Arrival
| Time | N/A |
|---|---|
| Airport | Menorca Airport (LEMH) |
| Time | Latitude | Longitude | Altitude | Speed | Heading |
|---|---|---|---|---|---|
| 2026-05-05 20:19 | 53.43007 | -6.24944 | 210 ft | 0 kts | 5° |
| 2026-05-05 20:31 | 53.42992 | -6.24946 | 213 ft | 3 kts | 11° |
| 2026-05-05 20:31 | 53.42956 | -6.24958 | 220 ft | 3 kts | 341° |
| 2026-05-05 20:32 | 53.42951 | -6.24961 | 217 ft | 1 kts | 275° |
| 2026-05-05 20:32 | 53.42951 | -6.24959 | 217 ft | 0 kts | 274° |
| 2026-05-05 20:34 | 53.42952 | -6.24977 | 213 ft | 6 kts | 273° |
| 2026-05-05 20:34 | 53.42957 | -6.25096 | 213 ft | 12 kts | 274° |
| 2026-05-05 20:34 | 53.42958 | -6.25232 | 210 ft | 12 kts | 259° |
| 2026-05-05 20:34 | 53.42961 | -6.25356 | 217 ft | 11 kts | 316° |
| 2026-05-05 20:35 | 53.43022 | -6.25407 | 214 ft | 11 kts | 335° |
| 2026-05-05 20:35 | 53.43098 | -6.25464 | 218 ft | 14 kts | 337° |
| 2026-05-05 20:35 | 53.43197 | -6.25535 | 212 ft | 18 kts | 336° |
| 2026-05-05 20:35 | 53.43313 | -6.25620 | 217 ft | 18 kts | 336° |
| 2026-05-05 20:36 | 53.43403 | -6.25585 | 210 ft | 16 kts | 76° |
| 2026-05-05 20:36 | 53.43399 | -6.25407 | 215 ft | 15 kts | 95° |
| 2026-05-05 20:36 | 53.43390 | -6.25237 | 217 ft | 14 kts | 93° |
| 2026-05-05 20:36 | 53.43381 | -6.25076 | 213 ft | 14 kts | 95° |
| 2026-05-05 20:37 | 53.43373 | -6.24921 | 213 ft | 13 kts | 95° |
| 2026-05-05 20:37 | 53.43364 | -6.24771 | 216 ft | 13 kts | 95° |
| 2026-05-05 20:37 | 53.43361 | -6.24627 | 217 ft | 12 kts | 75° |
| 2026-05-05 20:37 | 53.43422 | -6.24556 | 214 ft | 11 kts | 8° |
| 2026-05-05 20:38 | 53.43497 | -6.24553 | 217 ft | 11 kts | 346° |
| 2026-05-05 20:38 | 53.43527 | -6.24627 | 219 ft | 0 kts | 275° |
| 2026-05-05 20:38 | 53.43541 | -6.24891 | 211 ft | 58 kts | 276° |
| 2026-05-05 20:39 | 53.43601 | -6.25971 | 215 ft | 125 kts | 275° |
| 2026-05-05 20:39 | 53.43700 | -6.27714 | 314 ft | 168 kts | 275° |
| 2026-05-05 20:39 | 53.43835 | -6.29707 | 955 ft | 174 kts | 277° |
| 2026-05-05 20:39 | 53.43989 | -6.31789 | 1629 ft | 184 kts | 282° |
| 2026-05-05 20:40 | 53.44376 | -6.33839 | 2177 ft | 181 kts | 298° |
| 2026-05-05 20:40 | 53.45081 | -6.35700 | 2418 ft | 203 kts | 311° |
| 2026-05-05 20:40 | 53.45993 | -6.37598 | 2870 ft | 209 kts | 309° |
| 2026-05-05 20:40 | 53.46787 | -6.39645 | 3537 ft | 206 kts | 303° |
| 2026-05-05 20:41 | 53.47452 | -6.41721 | 4243 ft | 201 kts | 298° |
| 2026-05-05 20:41 | 53.48052 | -6.43848 | 4764 ft | 208 kts | 296° |
| 2026-05-05 20:41 | 53.48611 | -6.46227 | 4992 ft | 231 kts | 283° |
| 2026-05-05 20:41 | 53.48506 | -6.49059 | 5231 ft | 258 kts | 251° |
| 2026-05-05 20:42 | 53.47501 | -6.51574 | 5928 ft | 268 kts | 223° |
| 2026-05-05 20:42 | 53.45832 | -6.53018 | 6774 ft | 274 kts | 193° |
| 2026-05-05 20:42 | 53.43913 | -6.52891 | 7507 ft | 280 kts | 166° |
| 2026-05-05 20:42 | 53.42081 | -6.51806 | 8245 ft | 285 kts | 158° |
| 2026-05-05 20:43 | 53.40252 | -6.50436 | 8977 ft | 289 kts | 155° |
| 2026-05-05 20:43 | 53.38419 | -6.48990 | 9750 ft | 292 kts | 155° |
| 2026-05-05 20:43 | 53.36567 | -6.47524 | 10429 ft | 298 kts | 155° |
| 2026-05-05 20:43 | 53.34648 | -6.46016 | 10610 ft | 321 kts | 155° |
| 2026-05-05 20:44 | 53.32533 | -6.44372 | 10828 ft | 341 kts | 155° |
| 2026-05-05 20:44 | 53.30336 | -6.42680 | 11340 ft | 350 kts | 156° |
| 2026-05-05 20:44 | 53.28122 | -6.40986 | 12012 ft | 354 kts | 156° |
| 2026-05-05 20:44 | 53.26075 | -6.39426 | 12675 ft | 356 kts | 156° |
| 2026-05-05 20:45 | 53.21475 | -6.35944 | 13991 ft | 365 kts | 156° |
| 2026-05-05 20:45 | 53.19167 | -6.34202 | 14602 ft | 368 kts | 157° |
| 2026-05-05 20:45 | 53.16824 | -6.32438 | 15261 ft | 370 kts | 157° |
| 2026-05-05 20:46 | 53.14467 | -6.30664 | 15900 ft | 373 kts | 157° |
| 2026-05-05 20:46 | 53.12118 | -6.28901 | 16482 ft | 377 kts | 157° |
| 2026-05-05 20:46 | 53.09696 | -6.27084 | 17071 ft | 380 kts | 157° |